This is the latest recevied weather packets stored in our database for station/object WR9A-13. If no packets are shown the sender has not sent any weather packets the latest 1 day(s).
| Time | Temp. | Humidity | Pressure | Rain* | Wind** | Luminosity | Snow |
|---|---|---|---|---|---|---|---|
| 1777980914 | 13.33° C | 94% | 1007.6 hPa | 0 mm | 0.89 m/s, 203° | - | - |
| 1777980626 | 12.78° C | 94% | 1007.3 hPa | 0 mm | 0.89 m/s, 224° | - | - |
| 1777980314 | 12.78° C | 94% | 1006.8 hPa | 0.25 mm | 0.45 m/s, 231° | - | - |
| 1777980051 | 12.78° C | 94% | 1006.4 hPa | 0.25 mm | 0 m/s | - | - |
| 1777979728 | 12.78° C | 94% | 1006.5 hPa | 0.25 mm | 0 m/s | - | - |
| 1777979416 | 12.78° C | 94% | 1006.4 hPa | 0.25 mm | 0.45 m/s, 233° | - | - |
| 1777979133 | 12.78° C | 93% | 1006.2 hPa | 0.25 mm | 0.45 m/s, 233° | - | - |
| 1777978843 | 12.78° C | 93% | 1006.2 hPa | 0.25 mm | 0.45 m/s, 233° | - | - |
| 1777978530 | 12.78° C | 93% | 1006.5 hPa | 0.25 mm | 0.45 m/s, 232° | - | - |
| 1777978226 | 12.78° C | 93% | 1006.8 hPa | 0.25 mm | 0.45 m/s, 232° | - | - |
| 1777977914 | 12.78° C | 93% | 1006.9 hPa | 0.25 mm | 0.45 m/s, 232° | - | - |
| 1777977630 | 12.78° C | 93% | 1006.8 hPa | 0.25 mm | 0.45 m/s, 231° | - | - |
| 1777977317 | 12.78° C | 93% | 1006.6 hPa | 0.25 mm | 0.45 m/s, 254° | - | - |
| 1777977015 | 13.33° C | 93% | 1006.7 hPa | 0.25 mm | 0.45 m/s, 237° | - | - |
| 1777976722 | 13.33° C | 93% | 1006.8 hPa | 0 mm | 0.89 m/s, 238° | - | - |
| 1777976419 | 13.33° C | 93% | 1006.6 hPa | 0 mm | 0.89 m/s, 224° | - | - |
| 1777976127 | 13.33° C | 93% | 1006.4 hPa | 0 mm | 0.89 m/s, 274° | - | - |
| 1777975823 | 13.33° C | 93% | 1006.3 hPa | 0 mm | 0.89 m/s, 247° | - | - |
| 1777975530 | 12.78° C | 93% | 1006.4 hPa | 0 mm | 2.24 m/s, 278° | - | - |
| 1777975221 | 12.78° C | 93% | 1006.4 hPa | 0 mm | 1.34 m/s, 239° | - | - |
| 1777974938 | 12.78° C | 93% | 1006.2 hPa | 0 mm | 1.79 m/s, 241° | - | - |
| 1777974625 | 12.78° C | 93% | 1006.2 hPa | 0 mm | 1.79 m/s, 201° | - | - |
| 1777974342 | 12.78° C | 93% | 1006.2 hPa | 0 mm | 2.68 m/s, 227° | - | - |
| 1777974030 | 12.78° C | 93% | 1006 hPa | 0 mm | 2.24 m/s, 209° | - | - |
| 1777973727 | 12.78° C | 93% | 1005.9 hPa | 0 mm | 1.34 m/s, 193° | - | - |
* Rain latest hour (hover to see other rain measurements)
** Current wind speed in m/s (hover to see current wind gust speed)